sensor_id;sensor_type;location;lat;lon;timestamp;P1;durP1;ratioP1;P2;durP2;ratioP2
21192;SDS011;10754;51.106;7.164;2023-04-24T00:02:16;0.75;;;0.30;;
21192;SDS011;10754;51.106;7.164;2023-04-24T00:04:41;0.40;;;0.20;;
21192;SDS011;10754;51.106;7.164;2023-04-24T00:07:09;0.60;;;0.40;;
21192;SDS011;10754;51.106;7.164;2023-04-24T00:09:35;0.95;;;0.40;;
21192;SDS011;10754;51.106;7.164;2023-04-24T00:12:01;0.60;;;0.38;;
21192;SDS011;10754;51.106;7.164;2023-04-24T00:14:29;0.15;;;0.13;;
21192;SDS011;10754;51.106;7.164;2023-04-24T00:16:55;0.73;;;0.28;;
21192;SDS011;10754;51.106;7.164;2023-04-24T00:19:20;1.90;;;0.73;;
21192;SDS011;10754;51.106;7.164;2023-04-24T00:21:46;0.85;;;0.38;;
21192;SDS011;10754;51.106;7.164;2023-04-24T00:24:15;1.83;;;0.60;;
21192;SDS011;10754;51.106;7.164;2023-04-24T00:26:41;0.52;;;0.32;;
21192;SDS011;10754;51.106;7.164;2023-04-24T00:29:07;0.70;;;0.40;;
21192;SDS011;10754;51.106;7.164;2023-04-24T00:31:32;1.38;;;0.40;;
21192;SDS011;10754;51.106;7.164;2023-04-24T00:33:59;0.50;;;0.38;;
21192;SDS011;10754;51.106;7.164;2023-04-24T00:36:26;1.75;;;0.45;;
21192;SDS011;10754;51.106;7.164;2023-04-24T00:38:52;0.70;;;0.30;;
21192;SDS011;10754;51.106;7.164;2023-04-24T00:41:17;1.23;;;0.20;;
21192;SDS011;10754;51.106;7.164;2023-04-24T00:43:43;0.45;;;0.45;;
21192;SDS011;10754;51.106;7.164;2023-04-24T00:46:09;0.73;;;0.50;;
21192;SDS011;10754;51.106;7.164;2023-04-24T00:48:35;0.40;;;0.30;;
21192;SDS011;10754;51.106;7.164;2023-04-24T00:51:03;0.50;;;0.38;;
21192;SDS011;10754;51.106;7.164;2023-04-24T00:53:29;0.47;;;0.40;;
21192;SDS011;10754;51.106;7.164;2023-04-24T00:55:54;0.90;;;0.35;;
21192;SDS011;10754;51.106;7.164;2023-04-24T00:58:21;0.65;;;0.40;;
21192;SDS011;10754;51.106;7.164;2023-04-24T01:00:47;1.10;;;0.30;;
21192;SDS011;10754;51.106;7.164;2023-04-24T01:03:14;0.75;;;0.47;;
21192;SDS011;10754;51.106;7.164;2023-04-24T01:05:40;0.95;;;0.60;;
21192;SDS011;10754;51.106;7.164;2023-04-24T01:08:06;0.95;;;0.52;;
21192;SDS011;10754;51.106;7.164;2023-04-24T01:10:32;0.90;;;0.52;;
21192;SDS011;10754;51.106;7.164;2023-04-24T01:12:59;0.60;;;0.40;;
21192;SDS011;10754;51.106;7.164;2023-04-24T01:15:25;0.50;;;0.40;;
21192;SDS011;10754;51.106;7.164;2023-04-24T01:17:51;0.77;;;0.47;;
21192;SDS011;10754;51.106;7.164;2023-04-24T01:20:16;1.45;;;0.68;;
21192;SDS011;10754;51.106;7.164;2023-04-24T01:22:42;0.65;;;0.50;;
21192;SDS011;10754;51.106;7.164;2023-04-24T01:25:08;0.60;;;0.50;;
21192;SDS011;10754;51.106;7.164;2023-04-24T01:27:34;1.10;;;0.60;;
21192;SDS011;10754;51.106;7.164;2023-04-24T01:29:59;0.60;;;0.60;;
21192;SDS011;10754;51.106;7.164;2023-04-24T01:32:25;0.75;;;0.47;;
21192;SDS011;10754;51.106;7.164;2023-04-24T01:34:51;0.40;;;0.40;;
21192;SDS011;10754;51.106;7.164;2023-04-24T01:37:17;0.73;;;0.60;;
21192;SDS011;10754;51.106;7.164;2023-04-24T01:39:43;0.60;;;0.60;;
21192;SDS011;10754;51.106;7.164;2023-04-24T01:42:08;0.95;;;0.60;;
21192;SDS011;10754;51.106;7.164;2023-04-24T01:44:34;1.48;;;0.73;;
21192;SDS011;10754;51.106;7.164;2023-04-24T01:47:00;2.13;;;1.05;;
21192;SDS011;10754;51.106;7.164;2023-04-24T01:49:26;2.67;;;0.90;;
21192;SDS011;10754;51.106;7.164;2023-04-24T01:51:52;1.88;;;1.00;;
21192;SDS011;10754;51.106;7.164;2023-04-24T01:54:17;1.00;;;0.75;;
21192;SDS011;10754;51.106;7.164;2023-04-24T01:56:43;1.10;;;0.80;;
21192;SDS011;10754;51.106;7.164;2023-04-24T01:59:10;1.77;;;1.00;;
21192;SDS011;10754;51.106;7.164;2023-04-24T02:01:36;1.88;;;1.15;;
21192;SDS011;10754;51.106;7.164;2023-04-24T02:04:02;2.35;;;1.27;;
21192;SDS011;10754;51.106;7.164;2023-04-24T02:06:28;2.30;;;1.45;;
21192;SDS011;10754;51.106;7.164;2023-04-24T02:08:56;2.88;;;1.67;;
21192;SDS011;10754;51.106;7.164;2023-04-24T02:11:22;1.90;;;1.42;;
21192;SDS011;10754;51.106;7.164;2023-04-24T02:13:48;1.92;;;1.50;;
21192;SDS011;10754;51.106;7.164;2023-04-24T02:16:13;1.70;;;1.50;;
21192;SDS011;10754;51.106;7.164;2023-04-24T02:18:39;2.17;;;1.63;;
21192;SDS011;10754;51.106;7.164;2023-04-24T02:21:04;1.70;;;1.60;;
21192;SDS011;10754;51.106;7.164;2023-04-24T02:23:30;2.72;;;1.70;;
21192;SDS011;10754;51.106;7.164;2023-04-24T02:25:55;2.42;;;2.05;;
21192;SDS011;10754;51.106;7.164;2023-04-24T02:28:21;2.22;;;1.70;;
21192;SDS011;10754;51.106;7.164;2023-04-24T02:30:46;2.55;;;1.80;;
21192;SDS011;10754;51.106;7.164;2023-04-24T02:33:12;2.15;;;1.73;;
21192;SDS011;10754;51.106;7.164;2023-04-24T02:35:37;1.88;;;1.58;;
21192;SDS011;10754;51.106;7.164;2023-04-24T02:38:03;3.00;;;2.13;;
21192;SDS011;10754;51.106;7.164;2023-04-24T02:40:29;2.47;;;2.28;;
21192;SDS011;10754;51.106;7.164;2023-04-24T02:42:55;3.03;;;2.38;;
21192;SDS011;10754;51.106;7.164;2023-04-24T02:45:20;3.72;;;2.72;;
21192;SDS011;10754;51.106;7.164;2023-04-24T02:47:46;3.30;;;3.00;;
21192;SDS011;10754;51.106;7.164;2023-04-24T02:50:11;4.05;;;2.42;;
21192;SDS011;10754;51.106;7.164;2023-04-24T02:52:37;3.58;;;3.17;;
21192;SDS011;10754;51.106;7.164;2023-04-24T02:55:02;3.13;;;2.55;;
21192;SDS011;10754;51.106;7.164;2023-04-24T02:57:28;3.30;;;2.55;;
21192;SDS011;10754;51.106;7.164;2023-04-24T02:59:53;4.20;;;3.17;;
21192;SDS011;10754;51.106;7.164;2023-04-24T03:02:19;4.05;;;3.03;;
21192;SDS011;10754;51.106;7.164;2023-04-24T03:04:45;3.75;;;3.00;;
21192;SDS011;10754;51.106;7.164;2023-04-24T03:07:12;3.80;;;2.97;;
21192;SDS011;10754;51.106;7.164;2023-04-24T03:09:39;4.15;;;3.15;;
21192;SDS011;10754;51.106;7.164;2023-04-24T03:12:05;3.92;;;3.53;;
21192;SDS011;10754;51.106;7.164;2023-04-24T03:14:30;4.30;;;3.15;;
21192;SDS011;10754;51.106;7.164;2023-04-24T03:16:56;3.42;;;3.13;;
21192;SDS011;10754;51.106;7.164;2023-04-24T03:19:22;3.50;;;2.97;;
21192;SDS011;10754;51.106;7.164;2023-04-24T03:21:47;3.72;;;3.35;;
21192;SDS011;10754;51.106;7.164;2023-04-24T03:24:13;5.32;;;3.38;;
21192;SDS011;10754;51.106;7.164;2023-04-24T03:26:39;5.32;;;3.63;;
21192;SDS011;10754;51.106;7.164;2023-04-24T03:29:04;4.55;;;4.00;;
21192;SDS011;10754;51.106;7.164;2023-04-24T03:31:30;4.07;;;3.67;;
21192;SDS011;10754;51.106;7.164;2023-04-24T03:33:55;3.90;;;3.50;;
21192;SDS011;10754;51.106;7.164;2023-04-24T03:36:21;6.60;;;3.58;;
21192;SDS011;10754;51.106;7.164;2023-04-24T03:38:46;6.00;;;4.13;;
21192;SDS011;10754;51.106;7.164;2023-04-24T03:41:12;4.95;;;3.85;;
21192;SDS011;10754;51.106;7.164;2023-04-24T03:43:37;4.28;;;3.72;;
21192;SDS011;10754;51.106;7.164;2023-04-24T03:46:03;4.20;;;3.80;;
21192;SDS011;10754;51.106;7.164;2023-04-24T03:48:29;4.72;;;3.60;;
21192;SDS011;10754;51.106;7.164;2023-04-24T03:50:54;4.43;;;3.43;;
21192;SDS011;10754;51.106;7.164;2023-04-24T03:53:20;4.00;;;3.70;;
21192;SDS011;10754;51.106;7.164;2023-04-24T03:55:46;4.30;;;3.90;;
21192;SDS011;10754;51.106;7.164;2023-04-24T03:58:11;5.28;;;3.67;;
21192;SDS011;10754;51.106;7.164;2023-04-24T04:00:39;4.82;;;3.92;;
21192;SDS011;10754;51.106;7.164;2023-04-24T04:03:05;5.00;;;4.50;;
21192;SDS011;10754;51.106;7.164;2023-04-24T04:05:31;5.10;;;4.50;;
21192;SDS011;10754;51.106;7.164;2023-04-24T04:07:56;4.03;;;3.63;;
21192;SDS011;10754;51.106;7.164;2023-04-24T04:10:22;3.97;;;3.50;;
21192;SDS011;10754;51.106;7.164;2023-04-24T04:12:47;3.95;;;3.55;;
21192;SDS011;10754;51.106;7.164;2023-04-24T04:15:13;6.95;;;4.50;;
21192;SDS011;10754;51.106;7.164;2023-04-24T04:17:38;4.30;;;3.90;;
21192;SDS011;10754;51.106;7.164;2023-04-24T04:20:04;4.83;;;3.93;;
21192;SDS011;10754;51.106;7.164;2023-04-24T04:22:36;4.32;;;3.63;;
21192;SDS011;10754;51.106;7.164;2023-04-24T04:25:03;4.55;;;4.15;;
21192;SDS011;10754;51.106;7.164;2023-04-24T04:27:29;3.75;;;3.38;;
21192;SDS011;10754;51.106;7.164;2023-04-24T04:29:57;5.47;;;4.15;;
21192;SDS011;10754;51.106;7.164;2023-04-24T04:32:24;3.97;;;3.60;;
21192;SDS011;10754;51.106;7.164;2023-04-24T04:34:49;4.70;;;3.35;;
21192;SDS011;10754;51.106;7.164;2023-04-24T04:37:18;4.28;;;3.88;;
21192;SDS011;10754;51.106;7.164;2023-04-24T04:39:43;3.97;;;3.50;;
21192;SDS011;10754;51.106;7.164;2023-04-24T04:42:09;4.30;;;3.90;;
21192;SDS011;10754;51.106;7.164;2023-04-24T04:44:34;3.53;;;3.22;;
21192;SDS011;10754;51.106;7.164;2023-04-24T04:47:01;4.10;;;3.70;;
21192;SDS011;10754;51.106;7.164;2023-04-24T04:49:30;3.97;;;3.57;;
21192;SDS011;10754;51.106;7.164;2023-04-24T04:51:56;4.38;;;3.53;;
21192;SDS011;10754;51.106;7.164;2023-04-24T04:54:22;4.40;;;3.47;;
21192;SDS011;10754;51.106;7.164;2023-04-24T04:56:49;4.20;;;3.75;;
21192;SDS011;10754;51.106;7.164;2023-04-24T04:59:15;3.90;;;3.30;;
21192;SDS011;10754;51.106;7.164;2023-04-24T05:01:41;3.50;;;3.20;;
21192;SDS011;10754;51.106;7.164;2023-04-24T05:04:06;3.87;;;3.50;;
21192;SDS011;10754;51.106;7.164;2023-04-24T05:06:32;3.80;;;3.50;;
21192;SDS011;10754;51.106;7.164;2023-04-24T05:08:57;3.90;;;3.60;;
21192;SDS011;10754;51.106;7.164;2023-04-24T05:11:23;3.33;;;3.03;;
21192;SDS011;10754;51.106;7.164;2023-04-24T05:13:48;3.58;;;3.17;;
21192;SDS011;10754;51.106;7.164;2023-04-24T05:16:14;3.50;;;3.20;;
21192;SDS011;10754;51.106;7.164;2023-04-24T05:18:39;3.27;;;2.97;;
21192;SDS011;10754;51.106;7.164;2023-04-24T05:21:05;4.05;;;3.47;;
21192;SDS011;10754;51.106;7.164;2023-04-24T05:23:31;3.40;;;3.10;;
21192;SDS011;10754;51.106;7.164;2023-04-24T05:25:56;4.35;;;3.30;;
21192;SDS011;10754;51.106;7.164;2023-04-24T05:28:22;3.75;;;2.88;;
21192;SDS011;10754;51.106;7.164;2023-04-24T05:30:47;3.57;;;2.57;;
21192;SDS011;10754;51.106;7.164;2023-04-24T05:33:13;3.28;;;2.88;;
21192;SDS011;10754;51.106;7.164;2023-04-24T05:35:39;3.47;;;3.17;;
21192;SDS011;10754;51.106;7.164;2023-04-24T05:38:10;3.30;;;3.00;;
21192;SDS011;10754;51.106;7.164;2023-04-24T05:40:36;3.70;;;3.40;;
21192;SDS011;10754;51.106;7.164;2023-04-24T05:43:02;3.75;;;3.45;;
21192;SDS011;10754;51.106;7.164;2023-04-24T05:45:27;3.35;;;3.05;;
21192;SDS011;10754;51.106;7.164;2023-04-24T05:47:52;3.65;;;3.28;;
21192;SDS011;10754;51.106;7.164;2023-04-24T05:50:18;4.55;;;3.50;;
21192;SDS011;10754;51.106;7.164;2023-04-24T05:52:44;3.40;;;3.10;;
21192;SDS011;10754;51.106;7.164;2023-04-24T05:55:09;4.50;;;3.60;;
21192;SDS011;10754;51.106;7.164;2023-04-24T05:57:35;3.70;;;3.40;;
21192;SDS011;10754;51.106;7.164;2023-04-24T06:00:00;4.00;;;3.70;;
21192;SDS011;10754;51.106;7.164;2023-04-24T06:02:26;5.53;;;3.70;;
21192;SDS011;10754;51.106;7.164;2023-04-24T06:04:52;4.15;;;3.65;;
21192;SDS011;10754;51.106;7.164;2023-04-24T06:07:18;3.57;;;3.27;;
21192;SDS011;10754;51.106;7.164;2023-04-24T06:09:43;4.70;;;3.40;;
21192;SDS011;10754;51.106;7.164;2023-04-24T06:12:09;3.55;;;2.88;;
21192;SDS011;10754;51.106;7.164;2023-04-24T06:14:34;4.25;;;2.80;;
21192;SDS011;10754;51.106;7.164;2023-04-24T06:17:00;3.40;;;3.10;;
21192;SDS011;10754;51.106;7.164;2023-04-24T06:19:25;3.03;;;2.72;;
21192;SDS011;10754;51.106;7.164;2023-04-24T06:21:51;3.80;;;3.30;;
21192;SDS011;10754;51.106;7.164;2023-04-24T06:24:16;3.10;;;2.80;;
21192;SDS011;10754;51.106;7.164;2023-04-24T06:26:42;3.00;;;2.70;;
21192;SDS011;10754;51.106;7.164;2023-04-24T06:29:07;3.65;;;2.97;;
21192;SDS011;10754;51.106;7.164;2023-04-24T06:31:33;4.27;;;3.27;;
21192;SDS011;10754;51.106;7.164;2023-04-24T06:34:01;3.70;;;3.35;;
21192;SDS011;10754;51.106;7.164;2023-04-24T06:36:27;3.93;;;3.63;;
21192;SDS011;10754;51.106;7.164;2023-04-24T06:38:53;3.63;;;2.70;;
21192;SDS011;10754;51.106;7.164;2023-04-24T06:41:19;3.07;;;2.70;;
21192;SDS011;10754;51.106;7.164;2023-04-24T06:43:44;3.13;;;2.70;;
21192;SDS011;10754;51.106;7.164;2023-04-24T06:46:10;2.08;;;1.90;;
21192;SDS011;10754;51.106;7.164;2023-04-24T06:48:35;2.28;;;2.08;;
21192;SDS011;10754;51.106;7.164;2023-04-24T06:51:01;2.67;;;1.40;;
21192;SDS011;10754;51.106;7.164;2023-04-24T06:53:26;1.53;;;1.20;;
21192;SDS011;10754;51.106;7.164;2023-04-24T06:55:52;1.60;;;1.37;;
21192;SDS011;10754;51.106;7.164;2023-04-24T06:58:18;1.40;;;1.30;;
21192;SDS011;10754;51.106;7.164;2023-04-24T07:00:43;2.33;;;1.40;;
21192;SDS011;10754;51.106;7.164;2023-04-24T07:03:08;1.70;;;1.40;;
21192;SDS011;10754;51.106;7.164;2023-04-24T07:05:34;1.95;;;1.20;;
21192;SDS011;10754;51.106;7.164;2023-04-24T07:08:00;1.50;;;1.10;;
21192;SDS011;10754;51.106;7.164;2023-04-24T07:10:26;3.40;;;1.57;;
21192;SDS011;10754;51.106;7.164;2023-04-24T07:12:53;1.63;;;1.00;;
21192;SDS011;10754;51.106;7.164;2023-04-24T07:15:19;3.10;;;1.20;;
21192;SDS011;10754;51.106;7.164;2023-04-24T07:17:45;2.50;;;1.20;;
21192;SDS011;10754;51.106;7.164;2023-04-24T07:20:11;1.03;;;0.80;;
21192;SDS011;10754;51.106;7.164;2023-04-24T07:22:37;1.10;;;0.90;;
21192;SDS011;10754;51.106;7.164;2023-04-24T07:25:03;1.40;;;1.17;;
21192;SDS011;10754;51.106;7.164;2023-04-24T07:27:29;1.87;;;0.90;;
21192;SDS011;10754;51.106;7.164;2023-04-24T07:29:55;1.13;;;1.03;;
21192;SDS011;10754;51.106;7.164;2023-04-24T07:32:20;1.20;;;1.10;;
21192;SDS011;10754;51.106;7.164;2023-04-24T07:34:46;1.20;;;1.07;;
21192;SDS011;10754;51.106;7.164;2023-04-24T07:37:11;1.20;;;1.10;;
21192;SDS011;10754;51.106;7.164;2023-04-24T07:39:37;1.10;;;1.00;;
21192;SDS011;10754;51.106;7.164;2023-04-24T07:42:02;1.60;;;1.20;;
21192;SDS011;10754;51.106;7.164;2023-04-24T07:44:28;1.30;;;1.20;;
21192;SDS011;10754;51.106;7.164;2023-04-24T07:46:54;1.37;;;1.27;;
21192;SDS011;10754;51.106;7.164;2023-04-24T07:49:20;3.00;;;1.67;;
21192;SDS011;10754;51.106;7.164;2023-04-24T07:51:46;2.03;;;1.47;;
21192;SDS011;10754;51.106;7.164;2023-04-24T07:54:11;2.50;;;1.53;;
21192;SDS011;10754;51.106;7.164;2023-04-24T07:56:37;1.40;;;1.30;;
21192;SDS011;10754;51.106;7.164;2023-04-24T07:59:06;1.87;;;1.50;;
21192;SDS011;10754;51.106;7.164;2023-04-24T08:01:32;1.40;;;1.20;;
21192;SDS011;10754;51.106;7.164;2023-04-24T08:03:58;1.23;;;1.13;;
21192;SDS011;10754;51.106;7.164;2023-04-24T08:06:23;1.00;;;0.87;;
21192;SDS011;10754;51.106;7.164;2023-04-24T08:08:49;2.27;;;1.30;;
21192;SDS011;10754;51.106;7.164;2023-04-24T08:11:15;1.80;;;1.20;;
21192;SDS011;10754;51.106;7.164;2023-04-24T08:13:40;0.70;;;0.70;;
21192;SDS011;10754;51.106;7.164;2023-04-24T08:16:06;1.27;;;0.70;;
21192;SDS011;10754;51.106;7.164;2023-04-24T08:18:31;1.83;;;0.73;;
21192;SDS011;10754;51.106;7.164;2023-04-24T08:20:57;0.57;;;0.50;;
21192;SDS011;10754;51.106;7.164;2023-04-24T08:23:26;2.43;;;0.93;;
21192;SDS011;10754;51.106;7.164;2023-04-24T08:25:52;1.43;;;0.70;;
21192;SDS011;10754;51.106;7.164;2023-04-24T08:28:17;2.23;;;0.90;;
21192;SDS011;10754;51.106;7.164;2023-04-24T08:30:45;2.40;;;1.00;;
21192;SDS011;10754;51.106;7.164;2023-04-24T08:33:12;3.70;;;1.43;;
21192;SDS011;10754;51.106;7.164;2023-04-24T08:35:37;2.07;;;1.20;;
21192;SDS011;10754;51.106;7.164;2023-04-24T08:38:03;2.10;;;1.50;;
21192;SDS011;10754;51.106;7.164;2023-04-24T08:40:29;2.03;;;1.10;;
21192;SDS011;10754;51.106;7.164;2023-04-24T08:42:58;1.25;;;1.15;;
21192;SDS011;10754;51.106;7.164;2023-04-24T08:45:24;1.23;;;0.95;;
21192;SDS011;10754;51.106;7.164;2023-04-24T08:47:51;0.97;;;0.80;;
21192;SDS011;10754;51.106;7.164;2023-04-24T08:50:18;1.27;;;0.90;;
21192;SDS011;10754;51.106;7.164;2023-04-24T08:52:43;1.43;;;1.27;;
21192;SDS011;10754;51.106;7.164;2023-04-24T08:55:09;1.20;;;1.10;;
21192;SDS011;10754;51.106;7.164;2023-04-24T08:57:35;1.40;;;1.10;;
21192;SDS011;10754;51.106;7.164;2023-04-24T09:00:03;1.50;;;1.17;;
21192;SDS011;10754;51.106;7.164;2023-04-24T09:02:29;2.47;;;1.50;;
21192;SDS011;10754;51.106;7.164;2023-04-24T09:04:56;3.07;;;1.40;;
21192;SDS011;10754;51.106;7.164;2023-04-24T09:07:23;1.53;;;1.43;;
21192;SDS011;10754;51.106;7.164;2023-04-24T09:09:50;2.47;;;1.50;;
21192;SDS011;10754;51.106;7.164;2023-04-24T09:12:17;3.83;;;1.50;;
21192;SDS011;10754;51.106;7.164;2023-04-24T09:14:44;1.70;;;1.53;;
21192;SDS011;10754;51.106;7.164;2023-04-24T09:17:10;2.00;;;1.73;;
21192;SDS011;10754;51.106;7.164;2023-04-24T09:19:39;1.87;;;1.73;;
21192;SDS011;10754;51.106;7.164;2023-04-24T09:22:06;4.33;;;2.30;;
21192;SDS011;10754;51.106;7.164;2023-04-24T09:24:33;5.30;;;2.37;;
21192;SDS011;10754;51.106;7.164;2023-04-24T09:26:59;2.20;;;2.00;;
21192;SDS011;10754;51.106;7.164;2023-04-24T09:29:29;2.97;;;2.30;;
21192;SDS011;10754;51.106;7.164;2023-04-24T09:31:54;3.00;;;2.53;;
21192;SDS011;10754;51.106;7.164;2023-04-24T09:34:21;3.17;;;2.60;;
21192;SDS011;10754;51.106;7.164;2023-04-24T09:36:48;2.60;;;2.40;;
21192;SDS011;10754;51.106;7.164;2023-04-24T09:39:15;2.90;;;2.70;;
21192;SDS011;10754;51.106;7.164;2023-04-24T09:41:45;3.57;;;2.97;;
21192;SDS011;10754;51.106;7.164;2023-04-24T09:46:49;2.83;;;2.60;;
21192;SDS011;10754;51.106;7.164;2023-04-24T09:49:27;3.23;;;2.77;;
21192;SDS011;10754;51.106;7.164;2023-04-24T09:52:08;2.70;;;2.47;;
21192;SDS011;10754;51.106;7.164;2023-04-24T09:54:35;3.30;;;2.00;;
21192;SDS011;10754;51.106;7.164;2023-04-24T09:57:04;5.13;;;2.30;;
21192;SDS011;10754;51.106;7.164;2023-04-24T09:59:32;2.87;;;2.40;;
21192;SDS011;10754;51.106;7.164;2023-04-24T10:01:58;2.93;;;2.23;;
21192;SDS011;10754;51.106;7.164;2023-04-24T10:04:25;3.77;;;2.70;;
21192;SDS011;10754;51.106;7.164;2023-04-24T10:06:52;3.23;;;2.23;;
21192;SDS011;10754;51.106;7.164;2023-04-24T10:09:20;3.70;;;2.80;;
21192;SDS011;10754;51.106;7.164;2023-04-24T10:11:52;3.03;;;2.47;;
21192;SDS011;10754;51.106;7.164;2023-04-24T10:14:22;3.23;;;2.57;;
21192;SDS011;10754;51.106;7.164;2023-04-24T10:16:50;4.73;;;2.93;;
21192;SDS011;10754;51.106;7.164;2023-04-24T10:19:18;3.47;;;3.17;;
21192;SDS011;10754;51.106;7.164;2023-04-24T10:21:45;3.77;;;3.47;;
21192;SDS011;10754;51.106;7.164;2023-04-24T10:24:15;6.53;;;3.90;;
21192;SDS011;10754;51.106;7.164;2023-04-24T10:26:42;5.07;;;3.57;;
21192;SDS011;10754;51.106;7.164;2023-04-24T10:29:08;4.00;;;3.60;;
21192;SDS011;10754;51.106;7.164;2023-04-24T10:31:37;6.27;;;3.67;;
21192;SDS011;10754;51.106;7.164;2023-04-24T10:34:04;4.50;;;3.50;;
21192;SDS011;10754;51.106;7.164;2023-04-24T10:36:32;4.33;;;3.93;;
21192;SDS011;10754;51.106;7.164;2023-04-24T10:39:00;5.07;;;4.20;;
21192;SDS011;10754;51.106;7.164;2023-04-24T10:41:27;4.53;;;3.80;;
21192;SDS011;10754;51.106;7.164;2023-04-24T10:44:09;6.30;;;4.03;;
21192;SDS011;10754;51.106;7.164;2023-04-24T10:46:39;4.97;;;4.13;;
21192;SDS011;10754;51.106;7.164;2023-04-24T10:49:08;7.40;;;4.70;;
21192;SDS011;10754;51.106;7.164;2023-04-24T10:51:47;5.30;;;4.03;;
21192;SDS011;10754;51.106;7.164;2023-04-24T10:54:34;5.53;;;3.40;;
21192;SDS011;10754;51.106;7.164;2023-04-24T11:02:45;5.10;;;3.70;;
21192;SDS011;10754;51.106;7.164;2023-04-24T11:05:18;6.60;;;3.50;;
21192;SDS011;10754;51.106;7.164;2023-04-24T11:10:54;5.45;;;3.22;;
21192;SDS011;10754;51.106;7.164;2023-04-24T11:13:23;3.40;;;3.00;;
21192;SDS011;10754;51.106;7.164;2023-04-24T11:26:53;3.75;;;2.05;;
21192;SDS011;10754;51.106;7.164;2023-04-24T11:29:37;3.77;;;2.30;;
21192;SDS011;10754;51.106;7.164;2023-04-24T11:34:59;5.43;;;3.03;;
21192;SDS011;10754;51.106;7.164;2023-04-24T11:37:27;3.33;;;2.10;;
21192;SDS011;10754;51.106;7.164;2023-04-24T11:39:54;5.18;;;2.45;;
21192;SDS011;10754;51.106;7.164;2023-04-24T11:42:22;6.17;;;2.90;;
21192;SDS011;10754;51.106;7.164;2023-04-24T11:44:54;6.90;;;2.70;;
21192;SDS011;10754;51.106;7.164;2023-04-24T11:47:28;5.38;;;3.03;;
21192;SDS011;10754;51.106;7.164;2023-04-24T11:49:55;8.40;;;3.67;;
21192;SDS011;10754;51.106;7.164;2023-04-24T11:52:20;4.57;;;3.20;;
21192;SDS011;10754;51.106;7.164;2023-04-24T11:54:47;5.45;;;2.92;;
21192;SDS011;10754;51.106;7.164;2023-04-24T11:57:13;5.35;;;2.63;;
21192;SDS011;10754;51.106;7.164;2023-04-24T11:59:39;5.40;;;2.60;;
21192;SDS011;10754;51.106;7.164;2023-04-24T12:02:04;5.75;;;2.40;;
21192;SDS011;10754;51.106;7.164;2023-04-24T12:04:38;6.43;;;3.22;;
21192;SDS011;10754;51.106;7.164;2023-04-24T12:07:07;6.10;;;2.83;;
21192;SDS011;10754;51.106;7.164;2023-04-24T12:09:45;6.28;;;2.85;;
21192;SDS011;10754;51.106;7.164;2023-04-24T12:12:12;6.82;;;2.42;;
21192;SDS011;10754;51.106;7.164;2023-04-24T12:14:46;6.47;;;2.83;;
21192;SDS011;10754;51.106;7.164;2023-04-24T12:17:14;7.95;;;2.50;;
21192;SDS011;10754;51.106;7.164;2023-04-24T12:19:44;4.80;;;2.65;;
21192;SDS011;10754;51.106;7.164;2023-04-24T12:22:12;5.80;;;2.72;;
21192;SDS011;10754;51.106;7.164;2023-04-24T12:24:55;4.75;;;2.92;;
21192;SDS011;10754;51.106;7.164;2023-04-24T12:27:31;6.68;;;2.47;;
21192;SDS011;10754;51.106;7.164;2023-04-24T12:30:01;7.20;;;2.50;;
21192;SDS011;10754;51.106;7.164;2023-04-24T12:32:28;3.60;;;1.90;;
21192;SDS011;10754;51.106;7.164;2023-04-24T12:34:54;4.53;;;2.10;;
21192;SDS011;10754;51.106;7.164;2023-04-24T12:37:20;5.90;;;2.13;;
21192;SDS011;10754;51.106;7.164;2023-04-24T12:40:03;3.10;;;2.10;;
21192;SDS011;10754;51.106;7.164;2023-04-24T12:42:34;5.65;;;3.00;;
21192;SDS011;10754;51.106;7.164;2023-04-24T12:45:04;5.63;;;2.47;;
21192;SDS011;10754;51.106;7.164;2023-04-24T12:47:31;4.35;;;2.15;;
21192;SDS011;10754;51.106;7.164;2023-04-24T12:49:57;7.05;;;2.33;;
21192;SDS011;10754;51.106;7.164;2023-04-24T12:52:24;4.90;;;2.70;;
21192;SDS011;10754;51.106;7.164;2023-04-24T12:54:52;4.05;;;1.83;;
21192;SDS011;10754;51.106;7.164;2023-04-24T12:57:19;6.10;;;2.38;;
21192;SDS011;10754;51.106;7.164;2023-04-24T12:59:45;3.03;;;1.67;;
21192;SDS011;10754;51.106;7.164;2023-04-24T13:02:11;5.75;;;2.67;;
21192;SDS011;10754;51.106;7.164;2023-04-24T13:04:37;3.10;;;2.03;;
21192;SDS011;10754;51.106;7.164;2023-04-24T13:07:02;4.88;;;1.88;;
21192;SDS011;10754;51.106;7.164;2023-04-24T13:09:28;3.13;;;1.77;;
21192;SDS011;10754;51.106;7.164;2023-04-24T13:11:54;5.20;;;1.73;;
21192;SDS011;10754;51.106;7.164;2023-04-24T13:14:21;4.28;;;2.10;;
21192;SDS011;10754;51.106;7.164;2023-04-24T13:16:47;4.07;;;1.95;;
21192;SDS011;10754;51.106;7.164;2023-04-24T13:19:12;6.57;;;2.25;;
21192;SDS011;10754;51.106;7.164;2023-04-24T13:21:38;6.68;;;2.50;;
21192;SDS011;10754;51.106;7.164;2023-04-24T13:24:03;4.78;;;1.90;;
21192;SDS011;10754;51.106;7.164;2023-04-24T13:26:29;3.15;;;1.65;;
21192;SDS011;10754;51.106;7.164;2023-04-24T13:28:55;2.30;;;1.20;;
21192;SDS011;10754;51.106;7.164;2023-04-24T13:31:21;2.72;;;1.60;;
21192;SDS011;10754;51.106;7.164;2023-04-24T13:33:46;3.72;;;1.48;;
21192;SDS011;10754;51.106;7.164;2023-04-24T13:36:12;3.53;;;1.52;;
21192;SDS011;10754;51.106;7.164;2023-04-24T13:38:37;2.35;;;1.30;;
21192;SDS011;10754;51.106;7.164;2023-04-24T13:41:03;1.65;;;1.20;;
21192;SDS011;10754;51.106;7.164;2023-04-24T13:43:28;2.92;;;1.38;;
21192;SDS011;10754;51.106;7.164;2023-04-24T13:45:54;2.45;;;0.95;;
21192;SDS011;10754;51.106;7.164;2023-04-24T13:48:19;2.28;;;1.50;;
21192;SDS011;10754;51.106;7.164;2023-04-24T13:50:45;4.25;;;1.55;;
21192;SDS011;10754;51.106;7.164;2023-04-24T13:53:13;3.35;;;1.92;;
21192;SDS011;10754;51.106;7.164;2023-04-24T13:55:38;2.78;;;1.48;;
21192;SDS011;10754;51.106;7.164;2023-04-24T13:58:04;1.52;;;1.30;;
21192;SDS011;10754;51.106;7.164;2023-04-24T14:00:29;3.25;;;1.73;;
21192;SDS011;10754;51.106;7.164;2023-04-24T14:02:56;4.00;;;1.85;;
21192;SDS011;10754;51.106;7.164;2023-04-24T14:05:21;4.05;;;1.70;;
21192;SDS011;10754;51.106;7.164;2023-04-24T14:07:47;2.00;;;1.42;;
21192;SDS011;10754;51.106;7.164;2023-04-24T14:10:12;3.00;;;1.25;;
21192;SDS011;10754;51.106;7.164;2023-04-24T14:12:38;2.75;;;1.40;;
21192;SDS011;10754;51.106;7.164;2023-04-24T14:15:04;2.80;;;1.65;;
21192;SDS011;10754;51.106;7.164;2023-04-24T14:17:29;4.03;;;1.40;;
21192;SDS011;10754;51.106;7.164;2023-04-24T14:19:55;5.75;;;1.67;;
21192;SDS011;10754;51.106;7.164;2023-04-24T14:22:21;3.35;;;1.40;;
21192;SDS011;10754;51.106;7.164;2023-04-24T14:24:47;3.42;;;1.55;;
21192;SDS011;10754;51.106;7.164;2023-04-24T14:27:12;2.40;;;1.58;;
21192;SDS011;10754;51.106;7.164;2023-04-24T14:29:38;3.92;;;1.52;;
21192;SDS011;10754;51.106;7.164;2023-04-24T14:32:03;3.00;;;1.48;;
21192;SDS011;10754;51.106;7.164;2023-04-24T14:34:29;4.43;;;1.77;;
21192;SDS011;10754;51.106;7.164;2023-04-24T14:36:55;4.07;;;1.80;;
21192;SDS011;10754;51.106;7.164;2023-04-24T14:39:20;2.95;;;1.83;;
21192;SDS011;10754;51.106;7.164;2023-04-24T14:41:46;1.73;;;1.02;;
21192;SDS011;10754;51.106;7.164;2023-04-24T14:44:12;5.10;;;1.88;;
21192;SDS011;10754;51.106;7.164;2023-04-24T14:46:37;3.65;;;1.50;;
21192;SDS011;10754;51.106;7.164;2023-04-24T14:49:02;4.07;;;1.90;;
21192;SDS011;10754;51.106;7.164;2023-04-24T14:51:28;3.92;;;1.70;;
21192;SDS011;10754;51.106;7.164;2023-04-24T14:53:54;3.60;;;1.42;;
21192;SDS011;10754;51.106;7.164;2023-04-24T14:56:20;2.83;;;1.30;;
21192;SDS011;10754;51.106;7.164;2023-04-24T14:58:46;3.85;;;1.55;;
21192;SDS011;10754;51.106;7.164;2023-04-24T15:01:11;3.97;;;1.40;;
21192;SDS011;10754;51.106;7.164;2023-04-24T15:03:37;4.20;;;1.83;;
21192;SDS011;10754;51.106;7.164;2023-04-24T15:06:02;3.70;;;1.55;;
21192;SDS011;10754;51.106;7.164;2023-04-24T15:08:28;2.95;;;1.40;;
21192;SDS011;10754;51.106;7.164;2023-04-24T15:10:53;2.92;;;1.35;;